Time;durP1;ratioP1;P1;durP2;ratioP2;P2;SDS_P1;SDS_P2;PMS_P1;PMS_P2;Temp;Humidity;BMP_temperature;BMP_pressure;BME280_temperature;BME280_humidity;BME280_pressure;Samples;Min_cycle;Max_cycle;Signal;HPM_P1;HPM_P2
2021/04/27 00:01:16;;;;;;;6.20;4.13;;;;;;;;;;5054036;28;20433;-70
2021/04/27 00:03:42;;;;;;;4.40;3.67;;;;;;;;;;5052174;28;20774;-70
2021/04/27 00:06:08;;;;;;;4.53;3.20;;;;;;;;;;5066049;28;20424;-70
2021/04/27 00:08:34;;;;;;;5.80;3.93;;;;;;;;;;5072044;28;20412;-70
2021/04/27 00:11:00;;;;;;;6.03;3.40;;;;;;;;;;5070743;28;20425;-70
2021/04/27 00:13:27;;;;;;;5.77;3.60;;;;;;;;;;5071683;28;20501;-70
2021/04/27 00:15:53;;;;;;;7.63;4.20;;;;;;;;;;5069737;28;20574;-70
2021/04/27 00:18:19;;;;;;;6.30;3.93;;;;;;;;;;5071669;28;20412;-70
2021/04/27 00:20:45;;;;;;;7.13;2.83;;;;;;;;;;5071826;28;20456;-70
2021/04/27 00:23:11;;;;;;;7.83;3.67;;;;;;;;;;5075297;28;20409;-70
2021/04/27 00:25:37;;;;;;;5.73;4.50;;;;;;;;;;5074204;28;20571;-70
2021/04/27 00:28:03;;;;;;;4.80;3.40;;;;;;;;;;5075192;28;20448;-70
2021/04/27 00:30:30;;;;;;;6.17;3.83;;;;;;;;;;5064820;28;20457;-71
2021/04/27 00:32:56;;;;;;;6.73;3.57;;;;;;;;;;5055423;28;20406;-71
2021/04/27 00:35:23;;;;;;;5.07;3.77;;;;;;;;;;5061768;28;20429;-71
2021/04/27 00:37:49;;;;;;;8.07;3.97;;;;;;;;;;5074118;28;20766;-70
2021/04/27 00:40:16;;;;;;;8.97;3.67;;;;;;;;;;5067388;28;20438;-70
2021/04/27 00:42:45;;;;;;;9.03;3.40;;;;;;;;;;5055291;28;20773;-70
2021/04/27 00:45:12;;;;;;;5.37;3.10;;;;;;;;;;5055147;28;20921;-70
2021/04/27 00:47:38;;;;;;;10.13;3.63;;;;;;;;;;5054874;28;20751;-70
2021/04/27 00:50:05;;;;;;;9.30;4.27;;;;;;;;;;5059579;28;20444;-70
2021/04/27 00:52:31;;;;;;;6.90;3.17;;;;;;;;;;5075171;28;20773;-70
2021/04/27 00:54:57;;;;;;;8.40;3.93;;;;;;;;;;5068355;28;20477;-70
2021/04/27 00:57:24;;;;;;;7.93;3.90;;;;;;;;;;5054927;28;20813;-70
2021/04/27 00:59:52;;;;;;;5.87;3.90;;;;;;;;;;5054792;28;20474;-70
2021/04/27 01:02:18;;;;;;;7.20;3.83;;;;;;;;;;5054855;28;20460;-70
2021/04/27 01:04:44;;;;;;;7.43;3.83;;;;;;;;;;5056141;28;20425;-70
2021/04/27 01:07:12;;;;;;;5.83;3.30;;;;;;;;;;5074521;28;20404;-70
2021/04/27 01:09:43;;;;;;;6.20;4.07;;;;;;;;;;5073262;28;20424;-70
2021/04/27 01:12:09;;;;;;;6.00;3.87;;;;;;;;;;5054838;28;20413;-70
2021/04/27 01:14:41;;;;;;;10.90;4.20;;;;;;;;;;5054705;28;20437;-70
2021/04/27 01:17:11;;;;;;;15.90;11.30;;;;;;;;;;5054518;28;20497;-70
2021/04/27 01:19:56;;;;;;;6.60;3.70;;;;;;;;;;5055044;28;20837;-70
2021/04/27 01:22:37;;;;;;;13.17;4.97;;;;;;;;;;5053852;28;20414;-70
2021/04/27 01:25:05;;;;;;;6.37;4.40;;;;;;;;;;5057560;28;20535;-70
2021/04/27 01:27:32;;;;;;;6.30;4.33;;;;;;;;;;5060276;28;20422;-70
2021/04/27 01:29:59;;;;;;;8.53;4.60;;;;;;;;;;5056448;28;20421;-70
2021/04/27 01:32:25;;;;;;;8.43;5.17;;;;;;;;;;5073253;28;20758;-70
2021/04/27 01:34:52;;;;;;;14.70;4.20;;;;;;;;;;5072714;28;20405;-70
2021/04/27 01:37:18;;;;;;;11.43;4.77;;;;;;;;;;5074007;28;20461;-70
2021/04/27 01:39:45;;;;;;;7.80;4.70;;;;;;;;;;5073257;28;20472;-71
2021/04/27 01:42:11;;;;;;;9.50;5.80;;;;;;;;;;5053755;28;20859;-71
2021/04/27 01:44:41;;;;;;;5.67;4.10;;;;;;;;;;5053848;28;20960;-70
2021/04/27 01:47:09;;;;;;;11.33;5.47;;;;;;;;;;5073809;28;20495;-71
2021/04/27 01:49:35;;;;;;;7.07;5.00;;;;;;;;;;5073673;28;20437;-70
2021/04/27 01:52:01;;;;;;;5.80;4.20;;;;;;;;;;5053888;28;20425;-70
2021/04/27 01:54:28;;;;;;;8.23;5.00;;;;;;;;;;5065557;28;20505;-70
2021/04/27 01:56:55;;;;;;;8.63;4.33;;;;;;;;;;5072327;28;20463;-71
2021/04/27 01:59:21;;;;;;;9.80;5.60;;;;;;;;;;5072385;28;20428;-70
2021/04/27 02:01:47;;;;;;;7.30;4.20;;;;;;;;;;5071367;28;20569;-71
2021/04/27 02:04:20;;;;;;;10.00;5.47;;;;;;;;;;5073400;28;20834;-70
2021/04/27 02:06:46;;;;;;;8.03;5.30;;;;;;;;;;5072387;28;20475;-70
2021/04/27 02:09:13;;;;;;;8.37;4.40;;;;;;;;;;5072091;28;20436;-70
2021/04/27 02:11:40;;;;;;;8.37;4.90;;;;;;;;;;5062744;28;20440;-71
2021/04/27 02:14:07;;;;;;;7.57;5.17;;;;;;;;;;5052050;28;20437;-71
2021/04/27 02:16:37;;;;;;;6.70;4.77;;;;;;;;;;5053416;28;20465;-71
2021/04/27 02:19:04;;;;;;;7.97;5.03;;;;;;;;;;5051777;28;20417;-71
2021/04/27 02:21:33;;;;;;;8.07;5.10;;;;;;;;;;5060074;28;20456;-71
2021/04/27 02:23:59;;;;;;;5.00;3.80;;;;;;;;;;5072956;28;20425;-70
2021/04/27 02:26:25;;;;;;;9.67;5.30;;;;;;;;;;5065612;28;20491;-70
2021/04/27 02:28:52;;;;;;;10.73;5.30;;;;;;;;;;5051575;28;20442;-71
2021/04/27 02:31:18;;;;;;;7.73;5.20;;;;;;;;;;5058479;28;20429;-70
2021/04/27 02:33:44;;;;;;;7.33;4.33;;;;;;;;;;5072595;28;20460;-70
2021/04/27 02:36:11;;;;;;;8.00;4.40;;;;;;;;;;5072295;28;20510;-71
2021/04/27 02:38:37;;;;;;;5.83;5.03;;;;;;;;;;5073493;28;20412;-70
2021/04/27 02:41:04;;;;;;;8.43;4.77;;;;;;;;;;5069785;28;20509;-70
2021/04/27 02:43:30;;;;;;;10.73;5.00;;;;;;;;;;5055642;28;20437;-70
2021/04/27 02:45:56;;;;;;;8.80;5.90;;;;;;;;;;5072831;28;20397;-70
2021/04/27 02:48:23;;;;;;;8.17;5.50;;;;;;;;;;5073183;28;20405;-70
2021/04/27 02:50:51;;;;;;;5.07;4.50;;;;;;;;;;5072440;28;20431;-70
2021/04/27 02:53:17;;;;;;;10.20;5.10;;;;;;;;;;5068389;28;20445;-70
2021/04/27 02:55:44;;;;;;;8.30;4.90;;;;;;;;;;5068398;28;20457;-70
2021/04/27 02:58:11;;;;;;;8.77;5.67;;;;;;;;;;5071410;28;20431;-71
2021/04/27 03:00:38;;;;;;;9.80;5.07;;;;;;;;;;5073231;28;20397;-71
2021/04/27 03:03:04;;;;;;;13.90;6.33;;;;;;;;;;5054106;28;20420;-71
2021/04/27 03:05:30;;;;;;;13.60;6.10;;;;;;;;;;5052814;28;20405;-70
2021/04/27 03:07:56;;;;;;;6.10;5.10;;;;;;;;;;5052553;28;20511;-70
2021/04/27 03:10:22;;;;;;;9.70;5.30;;;;;;;;;;5052742;28;20488;-70
2021/04/27 03:12:48;;;;;;;9.50;5.77;;;;;;;;;;5068074;28;20425;-70
2021/04/27 03:15:14;;;;;;;8.60;5.57;;;;;;;;;;5072779;28;20421;-70
2021/04/27 03:17:40;;;;;;;11.63;6.00;;;;;;;;;;5071363;28;20423;-70
2021/04/27 03:20:07;;;;;;;11.80;6.70;;;;;;;;;;5071203;28;20401;-70
2021/04/27 03:22:34;;;;;;;10.73;6.20;;;;;;;;;;5071632;28;20785;-70
2021/04/27 03:25:00;;;;;;;7.60;5.57;;;;;;;;;;5070976;28;20479;-70
2021/04/27 03:27:26;;;;;;;13.00;5.67;;;;;;;;;;5071604;28;20417;-70
2021/04/27 03:29:52;;;;;;;8.67;5.80;;;;;;;;;;5072447;28;20412;-70
2021/04/27 03:32:18;;;;;;;9.30;6.60;;;;;;;;;;5071775;28;20913;-70
2021/04/27 03:34:44;;;;;;;6.07;4.53;;;;;;;;;;5072376;28;20893;-70
2021/04/27 03:37:10;;;;;;;9.53;5.33;;;;;;;;;;5071179;28;20460;-70
2021/04/27 03:39:37;;;;;;;7.37;5.30;;;;;;;;;;5072697;28;20399;-70
2021/04/27 03:42:03;;;;;;;9.10;5.37;;;;;;;;;;5061557;28;20425;-70
2021/04/27 03:44:29;;;;;;;9.80;5.87;;;;;;;;;;5052637;28;20607;-70
2021/04/27 03:46:55;;;;;;;8.17;4.83;;;;;;;;;;5052201;28;20421;-70
2021/04/27 03:49:21;;;;;;;7.40;4.80;;;;;;;;;;5052396;28;20426;-70
2021/04/27 03:51:48;;;;;;;32.53;6.70;;;;;;;;;;5057521;28;20783;-70
2021/04/27 03:54:14;;;;;;;8.67;5.67;;;;;;;;;;5072182;28;20519;-70
2021/04/27 03:56:40;;;;;;;7.03;5.60;;;;;;;;;;5069706;28;20544;-70
2021/04/27 03:59:06;;;;;;;8.97;6.07;;;;;;;;;;5056004;28;20539;-70
2021/04/27 04:01:32;;;;;;;8.40;6.03;;;;;;;;;;5058501;28;20420;-71
2021/04/27 04:03:58;;;;;;;8.07;5.03;;;;;;;;;;5075824;28;20512;-70
2021/04/27 04:06:24;;;;;;;7.97;5.00;;;;;;;;;;5074784;28;20907;-70
2021/04/27 04:08:50;;;;;;;7.07;5.37;;;;;;;;;;5075986;28;20400;-70
2021/04/27 04:11:16;;;;;;;8.30;5.37;;;;;;;;;;5074992;28;20412;-70
2021/04/27 04:13:42;;;;;;;7.93;4.67;;;;;;;;;;5055137;28;20849;-70
2021/04/27 04:16:09;;;;;;;15.33;6.63;;;;;;;;;;5075367;28;20530;-70
2021/04/27 04:18:35;;;;;;;8.17;5.60;;;;;;;;;;5074491;28;20456;-70
2021/04/27 04:21:01;;;;;;;7.57;5.47;;;;;;;;;;5076077;28;20393;-70
2021/04/27 04:23:28;;;;;;;8.67;5.97;;;;;;;;;;5056973;28;21010;-70
2021/04/27 04:25:54;;;;;;;8.50;5.47;;;;;;;;;;5055692;28;20409;-70
2021/04/27 04:28:20;;;;;;;8.97;5.93;;;;;;;;;;5072309;28;20438;-70
2021/04/27 04:30:47;;;;;;;8.50;5.27;;;;;;;;;;5076050;28;20468;-70
2021/04/27 04:33:13;;;;;;;11.07;5.97;;;;;;;;;;5074619;28;20425;-70
2021/04/27 04:35:39;;;;;;;11.33;5.90;;;;;;;;;;5076684;28;20563;-70
2021/04/27 04:38:05;;;;;;;8.97;4.60;;;;;;;;;;5074698;28;20454;-70
2021/04/27 04:40:32;;;;;;;7.17;5.17;;;;;;;;;;5075700;28;20412;-70
2021/04/27 04:42:58;;;;;;;7.13;5.60;;;;;;;;;;5074507;28;20598;-70
2021/04/27 04:45:25;;;;;;;15.10;5.57;;;;;;;;;;5075477;28;20412;-70
2021/04/27 04:47:52;;;;;;;9.00;4.90;;;;;;;;;;5062573;28;20432;-71
2021/04/27 04:50:18;;;;;;;7.67;4.53;;;;;;;;;;5054892;28;20484;-70
2021/04/27 04:52:44;;;;;;;8.57;5.17;;;;;;;;;;5065363;28;20451;-71
2021/04/27 04:55:11;;;;;;;8.23;5.53;;;;;;;;;;5074963;28;20481;-70
2021/04/27 04:57:37;;;;;;;8.40;6.00;;;;;;;;;;5073738;28;20552;-71
2021/04/27 05:00:05;;;;;;;7.33;4.93;;;;;;;;;;5075119;28;20400;-71
2021/04/27 05:02:31;;;;;;;8.37;5.13;;;;;;;;;;5073288;28;20508;-71
2021/04/27 05:04:57;;;;;;;6.93;5.20;;;;;;;;;;5074819;28;20409;-70
2021/04/27 05:07:25;;;;;;;6.70;5.50;;;;;;;;;;5070879;28;21008;-70
2021/04/27 05:09:52;;;;;;;8.80;5.30;;;;;;;;;;5074587;28;20404;-70
2021/04/27 05:12:18;;;;;;;7.43;4.70;;;;;;;;;;5073526;28;20956;-71
2021/04/27 05:14:44;;;;;;;8.10;5.20;;;;;;;;;;5074362;28;20500;-70
2021/04/27 05:17:11;;;;;;;6.33;5.13;;;;;;;;;;5068588;28;20563;-70
2021/04/27 05:19:37;;;;;;;10.50;5.03;;;;;;;;;;5054231;28;20413;-70
2021/04/27 05:22:09;;;;;;;10.23;5.67;;;;;;;;;;5068314;28;20432;-71
2021/04/27 05:24:36;;;;;;;12.73;6.70;;;;;;;;;;5074530;28;20534;-70
2021/04/27 05:27:03;;;;;;;10.50;5.50;;;;;;;;;;5073476;28;20468;-71
2021/04/27 05:29:29;;;;;;;9.70;6.43;;;;;;;;;;5074244;28;20412;-70
2021/04/27 05:31:55;;;;;;;8.90;6.07;;;;;;;;;;5073360;28;20929;-71
2021/04/27 05:34:21;;;;;;;9.30;6.10;;;;;;;;;;5074057;28;20424;-71
2021/04/27 05:36:47;;;;;;;8.60;5.67;;;;;;;;;;5073268;28;20470;-71
2021/04/27 05:39:14;;;;;;;7.27;4.20;;;;;;;;;;5074736;28;20476;-71
2021/04/27 05:41:40;;;;;;;14.00;6.10;;;;;;;;;;5073573;28;20401;-71
2021/04/27 05:44:07;;;;;;;8.47;5.53;;;;;;;;;;5069486;28;20529;-71
2021/04/27 05:46:33;;;;;;;13.63;5.77;;;;;;;;;;5054406;28;20433;-71
2021/04/27 05:48:59;;;;;;;10.00;6.00;;;;;;;;;;5072578;28;20444;-70
2021/04/27 05:51:25;;;;;;;10.27;5.97;;;;;;;;;;5074323;28;20456;-70
2021/04/27 05:53:51;;;;;;;8.93;5.37;;;;;;;;;;5072806;28;20476;-71
2021/04/27 05:56:17;;;;;;;9.00;5.90;;;;;;;;;;5071278;28;20928;-70
2021/04/27 05:58:44;;;;;;;8.07;5.67;;;;;;;;;;5073406;28;20432;-70
2021/04/27 06:01:13;;;;;;;9.00;5.87;;;;;;;;;;5072519;28;20505;-70
2021/04/27 06:03:39;;;;;;;8.70;6.37;;;;;;;;;;5072958;28;20852;-71
2021/04/27 06:06:06;;;;;;;16.40;5.77;;;;;;;;;;5074060;28;20410;-70
2021/04/27 06:08:34;;;;;;;9.30;5.67;;;;;;;;;;5073409;28;20465;-70
2021/04/27 06:11:00;;;;;;;9.90;5.53;;;;;;;;;;5073885;28;20406;-70
2021/04/27 06:13:26;;;;;;;7.57;5.50;;;;;;;;;;5072864;28;20445;-71
2021/04/27 06:15:53;;;;;;;10.70;5.83;;;;;;;;;;5073592;28;20449;-70
2021/04/27 06:18:18;;;;;;;12.93;6.57;;;;;;;;;;5065095;28;20459;-71
2021/04/27 06:20:45;;;;;;;9.97;6.27;;;;;;;;;;5053473;28;20477;-71
2021/04/27 06:23:11;;;;;;;15.67;6.57;;;;;;;;;;5053529;28;20445;-71
2021/04/27 06:25:37;;;;;;;12.47;6.90;;;;;;;;;;5053453;28;20855;-70
2021/04/27 06:28:03;;;;;;;7.73;5.53;;;;;;;;;;5057906;28;20431;-70
2021/04/27 06:30:29;;;;;;;9.73;6.53;;;;;;;;;;5068764;28;20430;-70
2021/04/27 06:32:55;;;;;;;10.47;5.40;;;;;;;;;;5053740;28;20421;-72
2021/04/27 06:35:25;;;;;;;10.60;5.50;;;;;;;;;;5053188;28;20429;-71
2021/04/27 06:37:51;;;;;;;10.20;6.00;;;;;;;;;;5054886;28;20421;-72
2021/04/27 06:40:17;;;;;;;11.07;7.23;;;;;;;;;;5088591;28;20417;-72
2021/04/27 06:42:43;;;;;;;15.50;7.37;;;;;;;;;;5072180;28;20405;-71
2021/04/27 06:45:10;;;;;;;11.67;6.47;;;;;;;;;;5073317;28;20505;-72
2021/04/27 06:47:36;;;;;;;15.17;7.87;;;;;;;;;;5071450;28;20416;-72
2021/04/27 06:50:03;;;;;;;9.20;6.57;;;;;;;;;;5058438;28;20810;-72
2021/04/27 06:52:29;;;;;;;8.87;6.17;;;;;;;;;;5068678;28;20427;-72
2021/04/27 06:54:55;;;;;;;10.83;6.60;;;;;;;;;;5068398;28;20526;-72
2021/04/27 06:57:21;;;;;;;14.53;5.83;;;;;;;;;;5086010;28;20490;-72
2021/04/27 06:59:47;;;;;;;9.60;5.80;;;;;;;;;;5070973;28;20872;-71
2021/04/27 07:02:13;;;;;;;8.17;5.43;;;;;;;;;;5069478;28;20504;-71
2021/04/27 07:04:40;;;;;;;8.13;5.60;;;;;;;;;;5066403;28;20437;-70
2021/04/27 07:07:06;;;;;;;7.97;6.07;;;;;;;;;;5071131;28;20429;-69
2021/04/27 07:09:32;;;;;;;11.30;6.40;;;;;;;;;;5068400;28;20486;-71
2021/04/27 07:11:58;;;;;;;9.20;6.50;;;;;;;;;;5069496;28;20792;-71
2021/04/27 07:14:25;;;;;;;11.25;6.10;;;;;;;;;;5061356;28;20426;-69
2021/04/27 07:16:51;;;;;;;9.00;6.15;;;;;;;;;;5068933;28;20925;-67
2021/04/27 07:19:17;;;;;;;9.60;6.80;;;;;;;;;;5060605;28;20222;-67
2021/04/27 07:21:43;;;;;;;9.33;6.17;;;;;;;;;;5056149;28;20532;-67
2021/04/27 07:24:10;;;;;;;9.63;6.80;;;;;;;;;;5066971;28;20441;-70
2021/04/27 07:26:37;;;;;;;9.83;6.20;;;;;;;;;;5067468;28;20424;-67
2021/04/27 07:29:03;;;;;;;8.20;6.47;;;;;;;;;;5065403;28;20749;-68
2021/04/27 07:31:29;;;;;;;9.20;6.05;;;;;;;;;;5063411;28;20517;-69
2021/04/27 07:33:55;;;;;;;12.45;7.30;;;;;;;;;;5066563;28;20430;-69
2021/04/27 07:36:21;;;;;;;11.97;7.00;;;;;;;;;;5070615;28;20468;-69
2021/04/27 07:38:48;;;;;;;9.05;6.80;;;;;;;;;;5070443;28;20425;-67
2021/04/27 07:41:14;;;;;;;10.70;7.97;;;;;;;;;;5072319;28;20513;-71
2021/04/27 07:43:40;;;;;;;12.27;6.60;;;;;;;;;;5070901;28;21804;-67
2021/04/27 07:46:06;;;;;;;9.40;6.40;;;;;;;;;;5070715;28;20424;-71
2021/04/27 07:48:32;;;;;;;6.97;5.40;;;;;;;;;;5071655;28;20806;-70
2021/04/27 07:50:58;;;;;;;9.03;6.87;;;;;;;;;;5079449;28;20416;-69
2021/04/27 07:53:24;;;;;;;7.80;6.10;;;;;;;;;;5071598;28;20882;-67
2021/04/27 07:55:50;;;;;;;10.00;6.97;;;;;;;;;;5074394;28;20986;-71
2021/04/27 07:58:17;;;;;;;7.23;6.13;;;;;;;;;;5066402;28;20750;-69
2021/04/27 08:00:43;;;;;;;8.23;5.90;;;;;;;;;;5072378;28;20412;-70
2021/04/27 08:03:09;;;;;;;9.30;6.30;;;;;;;;;;5069729;28;20516;-70
2021/04/27 08:05:35;;;;;;;7.07;5.97;;;;;;;;;;5066721;28;20938;-68
2021/04/27 08:08:01;;;;;;;9.50;6.97;;;;;;;;;;5066112;28;20419;-69
2021/04/27 08:10:27;;;;;;;9.27;6.03;;;;;;;;;;5063047;28;20416;-69
2021/04/27 08:12:54;;;;;;;12.70;6.90;;;;;;;;;;5064597;28;20491;-70
2021/04/27 08:15:25;;;;;;;10.83;7.47;;;;;;;;;;5071016;28;20456;-68
2021/04/27 08:17:51;;;;;;;13.57;6.50;;;;;;;;;;5072205;28;20511;-70
2021/04/27 08:20:17;;;;;;;10.13;6.00;;;;;;;;;;5072843;28;20421;-69
2021/04/27 08:22:44;;;;;;;11.23;6.60;;;;;;;;;;5072538;28;20413;-70
2021/04/27 08:25:13;;;;;;;8.40;6.10;;;;;;;;;;5070618;28;20442;-69
2021/04/27 08:27:39;;;;;;;10.90;6.67;;;;;;;;;;5045923;28;20512;-70
2021/04/27 08:30:06;;;;;;;8.40;6.33;;;;;;;;;;5065561;28;20416;-70
2021/04/27 08:32:32;;;;;;;12.63;7.20;;;;;;;;;;5069178;28;20462;-68
2021/04/27 08:34:58;;;;;;;12.30;6.20;;;;;;;;;;5065598;28;20471;-70
2021/04/27 08:37:24;;;;;;;12.07;6.90;;;;;;;;;;5065090;28;20536;-70
2021/04/27 08:39:50;;;;;;;9.67;7.20;;;;;;;;;;5057962;28;20869;-70
2021/04/27 08:42:17;;;;;;;11.37;6.50;;;;;;;;;;5061415;28;20432;-69
2021/04/27 08:44:43;;;;;;;12.23;6.80;;;;;;;;;;5071361;28;20555;-68
2021/04/27 08:47:10;;;;;;;8.97;7.00;;;;;;;;;;5071924;28;20474;-70
2021/04/27 08:49:36;;;;;;;11.70;6.60;;;;;;;;;;5070868;28;20452;-71
2021/04/27 08:52:02;;;;;;;9.47;6.90;;;;;;;;;;5074291;28;20904;-70
2021/04/27 08:54:28;;;;;;;13.87;7.10;;;;;;;;;;5071482;28;20506;-66
2021/04/27 08:56:55;;;;;;;9.27;7.43;;;;;;;;;;5070470;28;20722;-71
2021/04/27 08:59:21;;;;;;;10.63;6.67;;;;;;;;;;5066767;28;20643;-71
2021/04/27 09:01:48;;;;;;;16.83;7.20;;;;;;;;;;5071678;28;20936;-71
2021/04/27 09:04:34;;;;;;;11.47;8.00;;;;;;;;;;5072210;28;21007;-69
2021/04/27 09:07:04;;;;;;;10.63;6.10;;;;;;;;;;5069674;28;20925;-70
2021/04/27 09:09:45;;;;;;;9.50;6.50;;;;;;;;;;5071819;28;20468;-69
2021/04/27 09:12:11;;;;;;;9.73;7.10;;;;;;;;;;5061809;28;20432;-70
2021/04/27 09:14:38;;;;;;;10.53;6.87;;;;;;;;;;5072865;28;20981;-68
2021/04/27 09:17:06;;;;;;;10.40;7.32;;;;;;;;;;5071687;28;20833;-67
2021/04/27 09:19:33;;;;;;;10.43;6.30;;;;;;;;;;5069535;28;20602;-70
2021/04/27 09:22:05;;;;;;;12.13;6.30;;;;;;;;;;5070179;28;20425;-67
2021/04/27 09:24:34;;;;;;;16.50;7.53;;;;;;;;;;5065978;28;20993;-70
2021/04/27 09:27:00;;;;;;;11.07;7.85;;;;;;;;;;5070724;28;20410;-68
2021/04/27 09:29:30;;;;;;;11.23;8.00;;;;;;;;;;5071536;28;20980;-68
2021/04/27 09:31:56;;;;;;;11.23;7.30;;;;;;;;;;5073413;28;20179;-69
2021/04/27 09:34:24;;;;;;;10.30;7.50;;;;;;;;;;5061837;28;20431;-71
2021/04/27 09:36:51;;;;;;;10.13;7.13;;;;;;;;;;5060671;28;20199;-72
2021/04/27 09:39:19;;;;;;;10.50;7.57;;;;;;;;;;5074285;28;20761;-70
2021/04/27 09:41:56;;;;;;;11.73;7.00;;;;;;;;;;5073989;28;20431;-70
2021/04/27 09:44:32;;;;;;;12.98;7.47;;;;;;;;;;5071070;28;20820;-72
2021/04/27 09:47:08;;;;;;;11.70;6.80;;;;;;;;;;5061843;28;20261;-70
2021/04/27 09:49:35;;;;;;;10.20;7.60;;;;;;;;;;5070025;28;20444;-72
2021/04/27 09:52:01;;;;;;;11.40;7.82;;;;;;;;;;5065968;28;20453;-71
2021/04/27 09:54:28;;;;;;;8.23;6.70;;;;;;;;;;5069448;28;20074;-69
2021/04/27 09:56:55;;;;;;;11.73;6.97;;;;;;;;;;5068644;28;20238;-69
2021/04/27 09:59:28;;;;;;;9.97;6.40;;;;;;;;;;5069741;28;20441;-70
2021/04/27 10:01:54;;;;;;;8.70;5.90;;;;;;;;;;5058250;28;20471;-70
2021/04/27 10:04:21;;;;;;;10.50;6.07;;;;;;;;;;5064627;28;20804;-70
2021/04/27 10:06:48;;;;;;;7.77;6.47;;;;;;;;;;5068121;28;20562;-70
2021/04/27 10:09:14;;;;;;;9.60;6.70;;;;;;;;;;5071724;28;20504;-70
2021/04/27 10:11:41;;;;;;;6.87;6.13;;;;;;;;;;5072726;28;20433;-71
2021/04/27 10:14:08;;;;;;;10.53;7.40;;;;;;;;;;5069046;28;20440;-71
2021/04/27 10:16:35;;;;;;;12.13;6.83;;;;;;;;;;5072450;28;20460;-70
2021/04/27 10:19:02;;;;;;;13.00;8.13;;;;;;;;;;5059285;28;20434;-70
2021/04/27 10:21:29;;;;;;;9.60;7.53;;;;;;;;;;5066498;28;20427;-70
2021/04/27 10:24:03;;;;;;;9.47;7.47;;;;;;;;;;5067165;28;20449;-70
2021/04/27 10:26:31;;;;;;;12.57;7.63;;;;;;;;;;5059291;28;20417;-71
2021/04/27 10:29:07;;;;;;;11.77;8.20;;;;;;;;;;5064859;28;20490;-70
2021/04/27 10:31:35;;;;;;;9.10;7.10;;;;;;;;;;5070343;28;20413;-71
2021/04/27 10:34:04;;;;;;;13.27;7.47;;;;;;;;;;5063780;28;20460;-70
2021/04/27 10:36:31;;;;;;;12.73;7.50;;;;;;;;;;5071996;28;20449;-70
2021/04/27 10:38:58;;;;;;;12.87;7.97;;;;;;;;;;5069459;28;20425;-70
2021/04/27 10:41:41;;;;;;;15.47;7.80;;;;;;;;;;5071021;28;20783;-71
2021/04/27 10:44:08;;;;;;;15.90;7.87;;;;;;;;;;5071718;28;20662;-70
2021/04/27 10:46:36;;;;;;;8.83;6.60;;;;;;;;;;5071846;28;20513;-70
2021/04/27 10:49:23;;;;;;;9.97;7.20;;;;;;;;;;5067118;28;20452;-70
2021/04/27 10:51:50;;;;;;;9.20;6.90;;;;;;;;;;5072325;28;20440;-70
2021/04/27 10:54:16;;;;;;;12.33;7.43;;;;;;;;;;5067786;28;21038;-70
2021/04/27 10:56:48;;;;;;;14.57;7.83;;;;;;;;;;5068998;28;20492;-71
2021/04/27 10:59:20;;;;;;;10.57;7.63;;;;;;;;;;5070328;28;20436;-71
2021/04/27 11:01:47;;;;;;;11.27;8.33;;;;;;;;;;5071028;28;20431;-70
2021/04/27 11:04:28;;;;;;;11.90;7.60;;;;;;;;;;5068656;28;20448;-73
2021/04/27 11:07:12;;;;;;;13.10;7.78;;;;;;;;;;5062987;28;20468;-70
2021/04/27 11:09:39;;;;;;;9.20;7.43;;;;;;;;;;5069897;28;20655;-70
2021/04/27 11:12:24;;;;;;;9.30;7.20;;;;;;;;;;5071630;28;20405;-70
2021/04/27 11:14:57;;;;;;;12.77;7.63;;;;;;;;;;5071193;28;20854;-71
2021/04/27 11:17:42;;;;;;;9.80;7.13;;;;;;;;;;5070516;28;20482;-71
2021/04/27 11:20:10;;;;;;;15.37;8.00;;;;;;;;;;5068648;28;20550;-70
2021/04/27 11:22:37;;;;;;;9.30;7.40;;;;;;;;;;5071824;28;20417;-70
2021/04/27 11:25:04;;;;;;;11.10;8.17;;;;;;;;;;5069682;28;20487;-70
2021/04/27 11:27:33;;;;;;;18.93;8.60;;;;;;;;;;5070750;28;20920;-70
2021/04/27 11:30:17;;;;;;;12.83;8.40;;;;;;;;;;5059368;28;20450;-70
2021/04/27 11:32:44;;;;;;;10.90;7.60;;;;;;;;;;5068090;28;20486;-70
2021/04/27 11:35:16;;;;;;;9.17;7.87;;;;;;;;;;5070649;28;20453;-70
2021/04/27 11:37:42;;;;;;;11.50;8.10;;;;;;;;;;5070704;28;20491;-71
2021/04/27 11:40:13;;;;;;;12.93;7.80;;;;;;;;;;5059112;28;20422;-70
2021/04/27 11:42:39;;;;;;;10.30;8.00;;;;;;;;;;5066233;28;20454;-70
2021/04/27 11:45:08;;;;;;;13.70;8.00;;;;;;;;;;5069158;28;20445;-71
2021/04/27 11:47:38;;;;;;;12.10;8.60;;;;;;;;;;5071272;28;20420;-70
2021/04/27 11:50:09;;;;;;;10.47;8.70;;;;;;;;;;5068097;28;20504;-70
2021/04/27 11:52:50;;;;;;;10.70;7.80;;;;;;;;;;5070538;28;20444;-70
2021/04/27 11:55:20;;;;;;;17.00;8.77;;;;;;;;;;5070053;28;20883;-69
2021/04/27 11:57:48;;;;;;;12.47;8.53;;;;;;;;;;5070753;28;20444;-69
2021/04/27 12:00:14;;;;;;;10.90;8.57;;;;;;;;;;5068710;28;20885;-69
2021/04/27 12:02:40;;;;;;;12.87;8.70;;;;;;;;;;5070831;28;20909;-69
2021/04/27 12:05:07;;;;;;;10.83;8.10;;;;;;;;;;5067163;28;21020;-69
2021/04/27 12:07:33;;;;;;;10.67;8.23;;;;;;;;;;5068819;28;20428;-69
2021/04/27 12:09:59;;;;;;;15.30;9.53;;;;;;;;;;5068277;28;20506;-69
2021/04/27 12:12:26;;;;;;;14.70;9.70;;;;;;;;;;5071868;28;21092;-69
2021/04/27 12:14:57;;;;;;;10.53;8.60;;;;;;;;;;5068374;28;20444;-69
2021/04/27 12:17:26;;;;;;;12.83;8.77;;;;;;;;;;5086171;28;20440;-69
2021/04/27 12:20:21;;;;;;;10.67;8.53;;;;;;;;;;5062912;28;20452;-69
2021/04/27 12:22:49;;;;;;;14.97;8.40;;;;;;;;;;5063326;28;20415;-70
2021/04/27 12:25:26;;;;;;;10.47;8.90;;;;;;;;;;5063500;28;20436;-70
2021/04/27 12:27:53;;;;;;;9.80;8.00;;;;;;;;;;5063131;28;20412;-69
2021/04/27 12:30:24;;;;;;;11.53;7.80;;;;;;;;;;5071070;28;20806;-69
2021/04/27 12:32:58;;;;;;;11.87;7.43;;;;;;;;;;5067459;28;20474;-70
2021/04/27 12:35:24;;;;;;;14.23;8.43;;;;;;;;;;5065072;28;20452;-71
2021/04/27 12:37:57;;;;;;;11.00;8.23;;;;;;;;;;5071463;28;20923;-69
2021/04/27 12:40:24;;;;;;;16.20;9.13;;;;;;;;;;5072277;28;20425;-69
2021/04/27 12:43:09;;;;;;;16.70;8.83;;;;;;;;;;5073817;28;20405;-72
2021/04/27 12:45:47;;;;;;;12.00;8.87;;;;;;;;;;5067731;28;20571;-69
2021/04/27 12:48:13;;;;;;;18.53;9.10;;;;;;;;;;5073631;28;20405;-70
2021/04/27 12:50:46;;;;;;;13.30;8.10;;;;;;;;;;5072509;28;20433;-70
2021/04/27 12:53:13;;;;;;;15.63;9.33;;;;;;;;;;5063322;28;20424;-69
2021/04/27 12:55:39;;;;;;;12.00;7.50;;;;;;;;;;5069868;28;20497;-69
2021/04/27 12:58:09;;;;;;;13.60;7.93;;;;;;;;;;5071158;28;20862;-69
2021/04/27 13:00:36;;;;;;;10.50;8.40;;;;;;;;;;5069830;28;20447;-70
2021/04/27 13:03:14;;;;;;;10.03;6.77;;;;;;;;;;5065576;28;20412;-70
2021/04/27 13:05:40;;;;;;;15.77;8.27;;;;;;;;;;5071457;28;20439;-69
2021/04/27 13:08:07;;;;;;;9.57;8.57;;;;;;;;;;5072371;28;20443;-70
2021/04/27 13:10:36;;;;;;;18.83;9.10;;;;;;;;;;5072743;28;20417;-69
2021/04/27 13:13:02;;;;;;;11.30;8.40;;;;;;;;;;5072070;28;20420;-70
2021/04/27 13:15:29;;;;;;;13.37;7.77;;;;;;;;;;5072622;28;20929;-70
2021/04/27 13:17:56;;;;;;;13.63;8.07;;;;;;;;;;5073843;28;20787;-69
2021/04/27 13:20:26;;;;;;;13.90;8.90;;;;;;;;;;5072994;28;20468;-70
2021/04/27 13:22:57;;;;;;;15.07;8.93;;;;;;;;;;5068584;28;20421;-70
2021/04/27 13:25:34;;;;;;;9.50;7.60;;;;;;;;;;5071328;28;20456;-70
2021/04/27 13:28:01;;;;;;;9.67;7.40;;;;;;;;;;5069261;28;20520;-70
2021/04/27 13:30:32;;;;;;;13.97;7.33;;;;;;;;;;5075982;28;20490;-69
2021/04/27 13:33:01;;;;;;;9.20;7.50;;;;;;;;;;5083289;28;20417;-70
2021/04/27 13:35:32;;;;;;;8.80;6.43;;;;;;;;;;5066080;28;20455;-71
2021/04/27 13:37:59;;;;;;;11.17;7.30;;;;;;;;;;5067684;28;20452;-70
2021/04/27 13:40:25;;;;;;;13.00;8.60;;;;;;;;;;5069269;28;20483;-70
2021/04/27 13:42:56;;;;;;;10.33;7.77;;;;;;;;;;5068474;28;20421;-71
2021/04/27 13:45:22;;;;;;;10.20;7.53;;;;;;;;;;5067367;28;20555;-71
2021/04/27 13:47:49;;;;;;;13.63;7.90;;;;;;;;;;5069350;28;20516;-71
2021/04/27 13:50:16;;;;;;;12.83;7.17;;;;;;;;;;5071628;28;20527;-70
2021/04/27 13:52:42;;;;;;;10.73;7.80;;;;;;;;;;5068898;28;20470;-71
2021/04/27 13:55:09;;;;;;;11.80;7.37;;;;;;;;;;5071331;28;20456;-70
2021/04/27 13:57:35;;;;;;;9.23;6.80;;;;;;;;;;5077684;28;20448;-69
2021/04/27 14:00:01;;;;;;;8.90;7.07;;;;;;;;;;5069317;28;20522;-69
2021/04/27 14:02:27;;;;;;;10.40;8.10;;;;;;;;;;5068179;28;20786;-69
2021/04/27 14:04:53;;;;;;;11.20;6.90;;;;;;;;;;5063364;28;20480;-71
2021/04/27 14:07:19;;;;;;;11.20;8.20;;;;;;;;;;5069592;28;20441;-69
2021/04/27 14:09:45;;;;;;;16.17;8.30;;;;;;;;;;5070000;28;20508;-68
2021/04/27 14:12:12;;;;;;;17.23;8.17;;;;;;;;;;5072754;28;20924;-68
2021/04/27 14:14:38;;;;;;;15.00;9.20;;;;;;;;;;5069321;28;20468;-69
2021/04/27 14:17:05;;;;;;;9.47;7.83;;;;;;;;;;5068085;28;20191;-68
2021/04/27 14:19:31;;;;;;;15.07;8.33;;;;;;;;;;5072506;28;20417;-71
2021/04/27 14:21:57;;;;;;;9.33;7.27;;;;;;;;;;5067625;28;20493;-70
2021/04/27 14:24:23;;;;;;;10.43;9.30;;;;;;;;;;5070977;28;20451;-69
2021/04/27 14:26:49;;;;;;;10.90;7.40;;;;;;;;;;5068097;28;20436;-71
2021/04/27 14:29:16;;;;;;;12.53;8.50;;;;;;;;;;5067875;28;20413;-70
2021/04/27 14:31:42;;;;;;;11.43;8.40;;;;;;;;;;5067287;28;20437;-70
2021/04/27 14:34:08;;;;;;;13.30;7.53;;;;;;;;;;5065528;28;20655;-68
2021/04/27 14:36:34;;;;;;;11.73;7.77;;;;;;;;;;5067627;28;20471;-68
2021/04/27 14:39:00;;;;;;;10.90;7.50;;;;;;;;;;5068493;28;20778;-69